sensor_id;sensor_type;location;lat;lon;timestamp;P1;durP1;ratioP1;P2;durP2;ratioP2
16450;SDS011;12243;42.708;23.310;2022-10-16T00:01:06;11.00;;;8.83;;
16450;SDS011;12243;42.708;23.310;2022-10-16T00:03:35;10.30;;;9.30;;
16450;SDS011;12243;42.708;23.310;2022-10-16T00:06:03;10.37;;;8.97;;
16450;SDS011;12243;42.708;23.310;2022-10-16T00:08:30;11.40;;;9.40;;
16450;SDS011;12243;42.708;23.310;2022-10-16T00:11:01;10.60;;;8.40;;
16450;SDS011;12243;42.708;23.310;2022-10-16T00:13:29;10.30;;;9.00;;
16450;SDS011;12243;42.708;23.310;2022-10-16T00:15:56;11.87;;;9.17;;
16450;SDS011;12243;42.708;23.310;2022-10-16T00:18:24;16.73;;;8.70;;
16450;SDS011;12243;42.708;23.310;2022-10-16T00:20:53;10.33;;;9.20;;
16450;SDS011;12243;42.708;23.310;2022-10-16T00:23:20;11.13;;;9.50;;
16450;SDS011;12243;42.708;23.310;2022-10-16T00:25:54;12.33;;;8.43;;
16450;SDS011;12243;42.708;23.310;2022-10-16T00:28:22;12.20;;;8.93;;
16450;SDS011;12243;42.708;23.310;2022-10-16T00:30:49;11.70;;;9.40;;
16450;SDS011;12243;42.708;23.310;2022-10-16T00:33:16;12.80;;;9.83;;
16450;SDS011;12243;42.708;23.310;2022-10-16T00:35:43;11.57;;;9.43;;
16450;SDS011;12243;42.708;23.310;2022-10-16T00:38:11;12.93;;;10.23;;
16450;SDS011;12243;42.708;23.310;2022-10-16T00:40:38;14.20;;;10.20;;
16450;SDS011;12243;42.708;23.310;2022-10-16T00:43:09;11.67;;;9.70;;
16450;SDS011;12243;42.708;23.310;2022-10-16T00:45:39;13.43;;;10.80;;
16450;SDS011;12243;42.708;23.310;2022-10-16T00:48:07;11.63;;;10.43;;
16450;SDS011;12243;42.708;23.310;2022-10-16T00:50:38;16.87;;;9.97;;
16450;SDS011;12243;42.708;23.310;2022-10-16T00:53:08;18.07;;;11.50;;
16450;SDS011;12243;42.708;23.310;2022-10-16T00:55:38;13.10;;;10.83;;
16450;SDS011;12243;42.708;23.310;2022-10-16T00:58:05;15.90;;;10.97;;
16450;SDS011;12243;42.708;23.310;2022-10-16T01:00:32;17.53;;;11.23;;
16450;SDS011;12243;42.708;23.310;2022-10-16T01:02:59;16.70;;;10.77;;
16450;SDS011;12243;42.708;23.310;2022-10-16T01:05:30;13.70;;;10.27;;
16450;SDS011;12243;42.708;23.310;2022-10-16T01:08:01;11.50;;;10.13;;
16450;SDS011;12243;42.708;23.310;2022-10-16T01:10:35;14.80;;;10.37;;
16450;SDS011;12243;42.708;23.310;2022-10-16T01:13:07;13.80;;;10.57;;
16450;SDS011;12243;42.708;23.310;2022-10-16T01:15:38;13.40;;;10.57;;
16450;SDS011;12243;42.708;23.310;2022-10-16T01:18:14;14.13;;;10.00;;
16450;SDS011;12243;42.708;23.310;2022-10-16T01:20:45;24.27;;;17.80;;
16450;SDS011;12243;42.708;23.310;2022-10-16T01:23:28;17.40;;;13.43;;
16450;SDS011;12243;42.708;23.310;2022-10-16T01:26:17;16.07;;;12.20;;
16450;SDS011;12243;42.708;23.310;2022-10-16T01:28:56;17.83;;;11.10;;
16450;SDS011;12243;42.708;23.310;2022-10-16T01:31:29;13.90;;;10.10;;
16450;SDS011;12243;42.708;23.310;2022-10-16T01:34:02;15.77;;;10.80;;
16450;SDS011;12243;42.708;23.310;2022-10-16T01:36:34;14.37;;;10.83;;
16450;SDS011;12243;42.708;23.310;2022-10-16T01:39:03;12.27;;;9.70;;
16450;SDS011;12243;42.708;23.310;2022-10-16T01:41:32;13.07;;;9.13;;
16450;SDS011;12243;42.708;23.310;2022-10-16T01:44:04;14.20;;;10.33;;
16450;SDS011;12243;42.708;23.310;2022-10-16T01:46:35;10.33;;;9.17;;
16450;SDS011;12243;42.708;23.310;2022-10-16T01:49:05;13.63;;;9.63;;
16450;SDS011;12243;42.708;23.310;2022-10-16T01:51:34;10.53;;;9.43;;
16450;SDS011;12243;42.708;23.310;2022-10-16T01:54:03;13.03;;;9.37;;
16450;SDS011;12243;42.708;23.310;2022-10-16T01:56:34;12.77;;;9.87;;
16450;SDS011;12243;42.708;23.310;2022-10-16T01:59:05;12.17;;;9.30;;
16450;SDS011;12243;42.708;23.310;2022-10-16T02:01:36;13.23;;;9.60;;
16450;SDS011;12243;42.708;23.310;2022-10-16T02:04:09;17.50;;;9.80;;
16450;SDS011;12243;42.708;23.310;2022-10-16T02:06:41;14.27;;;10.13;;
16450;SDS011;12243;42.708;23.310;2022-10-16T02:09:08;10.47;;;8.20;;
16450;SDS011;12243;42.708;23.310;2022-10-16T02:11:36;10.13;;;7.80;;
16450;SDS011;12243;42.708;23.310;2022-10-16T02:14:04;9.67;;;8.13;;
16450;SDS011;12243;42.708;23.310;2022-10-16T02:16:33;7.10;;;6.40;;
16450;SDS011;12243;42.708;23.310;2022-10-16T02:19:01;8.53;;;7.37;;
16450;SDS011;12243;42.708;23.310;2022-10-16T02:21:29;8.13;;;7.30;;
16450;SDS011;12243;42.708;23.310;2022-10-16T02:24:07;8.73;;;7.23;;
16450;SDS011;12243;42.708;23.310;2022-10-16T02:26:39;9.20;;;7.60;;
16450;SDS011;12243;42.708;23.310;2022-10-16T02:29:13;9.53;;;7.13;;
16450;SDS011;12243;42.708;23.310;2022-10-16T02:31:44;8.30;;;7.00;;
16450;SDS011;12243;42.708;23.310;2022-10-16T02:34:14;9.47;;;6.83;;
16450;SDS011;12243;42.708;23.310;2022-10-16T02:36:43;10.67;;;7.03;;
16450;SDS011;12243;42.708;23.310;2022-10-16T02:39:13;9.53;;;6.40;;
16450;SDS011;12243;42.708;23.310;2022-10-16T02:41:41;10.10;;;7.63;;
16450;SDS011;12243;42.708;23.310;2022-10-16T02:44:09;7.20;;;6.50;;
16450;SDS011;12243;42.708;23.310;2022-10-16T02:46:37;10.63;;;7.50;;
16450;SDS011;12243;42.708;23.310;2022-10-16T02:49:04;8.93;;;7.13;;
16450;SDS011;12243;42.708;23.310;2022-10-16T02:51:31;7.93;;;7.13;;
16450;SDS011;12243;42.708;23.310;2022-10-16T02:53:58;10.87;;;7.10;;
16450;SDS011;12243;42.708;23.310;2022-10-16T02:56:25;12.57;;;6.80;;
16450;SDS011;12243;42.708;23.310;2022-10-16T02:58:51;7.70;;;6.90;;
16450;SDS011;12243;42.708;23.310;2022-10-16T03:01:18;8.57;;;6.70;;
16450;SDS011;12243;42.708;23.310;2022-10-16T03:03:47;8.53;;;7.20;;
16450;SDS011;12243;42.708;23.310;2022-10-16T03:06:13;9.23;;;7.20;;
16450;SDS011;12243;42.708;23.310;2022-10-16T03:08:40;7.70;;;6.83;;
16450;SDS011;12243;42.708;23.310;2022-10-16T03:11:07;10.03;;;7.23;;
16450;SDS011;12243;42.708;23.310;2022-10-16T03:13:34;9.43;;;7.50;;
16450;SDS011;12243;42.708;23.310;2022-10-16T03:16:01;11.33;;;8.33;;
16450;SDS011;12243;42.708;23.310;2022-10-16T03:18:28;10.20;;;7.67;;
16450;SDS011;12243;42.708;23.310;2022-10-16T03:20:56;9.03;;;7.60;;
16450;SDS011;12243;42.708;23.310;2022-10-16T03:23:23;12.40;;;7.70;;
16450;SDS011;12243;42.708;23.310;2022-10-16T03:25:49;10.77;;;7.20;;
16450;SDS011;12243;42.708;23.310;2022-10-16T03:28:16;11.40;;;7.63;;
16450;SDS011;12243;42.708;23.310;2022-10-16T03:30:43;7.97;;;7.27;;
16450;SDS011;12243;42.708;23.310;2022-10-16T03:33:10;8.20;;;7.40;;
16450;SDS011;12243;42.708;23.310;2022-10-16T03:35:37;8.67;;;7.40;;
16450;SDS011;12243;42.708;23.310;2022-10-16T03:38:05;10.03;;;7.50;;
16450;SDS011;12243;42.708;23.310;2022-10-16T03:40:32;10.50;;;7.93;;
16450;SDS011;12243;42.708;23.310;2022-10-16T03:42:59;11.37;;;7.67;;
16450;SDS011;12243;42.708;23.310;2022-10-16T03:45:26;12.03;;;7.50;;
16450;SDS011;12243;42.708;23.310;2022-10-16T03:47:53;10.70;;;8.03;;
16450;SDS011;12243;42.708;23.310;2022-10-16T03:50:20;9.90;;;7.67;;
16450;SDS011;12243;42.708;23.310;2022-10-16T03:52:46;7.70;;;6.90;;
16450;SDS011;12243;42.708;23.310;2022-10-16T03:55:15;9.53;;;7.57;;
16450;SDS011;12243;42.708;23.310;2022-10-16T03:57:42;9.93;;;7.87;;
16450;SDS011;12243;42.708;23.310;2022-10-16T04:00:09;8.93;;;8.07;;
16450;SDS011;12243;42.708;23.310;2022-10-16T04:02:37;9.30;;;8.27;;
16450;SDS011;12243;42.708;23.310;2022-10-16T04:05:04;9.23;;;8.00;;
16450;SDS011;12243;42.708;23.310;2022-10-16T04:07:32;8.07;;;7.27;;
16450;SDS011;12243;42.708;23.310;2022-10-16T04:09:58;9.33;;;7.90;;
16450;SDS011;12243;42.708;23.310;2022-10-16T04:12:27;11.33;;;8.53;;
16450;SDS011;12243;42.708;23.310;2022-10-16T04:14:54;8.83;;;7.90;;
16450;SDS011;12243;42.708;23.310;2022-10-16T04:17:20;8.87;;;7.97;;
16450;SDS011;12243;42.708;23.310;2022-10-16T04:19:47;10.43;;;8.70;;
16450;SDS011;12243;42.708;23.310;2022-10-16T04:22:14;8.30;;;7.50;;
16450;SDS011;12243;42.708;23.310;2022-10-16T04:24:41;11.53;;;7.87;;
16450;SDS011;12243;42.708;23.310;2022-10-16T04:27:08;11.67;;;7.70;;
16450;SDS011;12243;42.708;23.310;2022-10-16T04:29:36;8.90;;;8.00;;
16450;SDS011;12243;42.708;23.310;2022-10-16T04:32:03;9.07;;;7.83;;
16450;SDS011;12243;42.708;23.310;2022-10-16T04:34:29;10.90;;;7.83;;
16450;SDS011;12243;42.708;23.310;2022-10-16T04:36:56;9.63;;;7.77;;
16450;SDS011;12243;42.708;23.310;2022-10-16T04:39:23;9.33;;;8.40;;
16450;SDS011;12243;42.708;23.310;2022-10-16T04:41:50;8.53;;;7.60;;
16450;SDS011;12243;42.708;23.310;2022-10-16T04:44:17;9.00;;;7.80;;
16450;SDS011;12243;42.708;23.310;2022-10-16T04:46:45;9.73;;;7.50;;
16450;SDS011;12243;42.708;23.310;2022-10-16T04:49:12;10.90;;;8.77;;
16450;SDS011;12243;42.708;23.310;2022-10-16T04:51:39;12.67;;;8.33;;
16450;SDS011;12243;42.708;23.310;2022-10-16T04:54:05;16.57;;;8.87;;
16450;SDS011;12243;42.708;23.310;2022-10-16T04:56:32;11.37;;;8.30;;
16450;SDS011;12243;42.708;23.310;2022-10-16T04:59:05;9.47;;;7.57;;
16450;SDS011;12243;42.708;23.310;2022-10-16T05:01:32;8.63;;;7.70;;
16450;SDS011;12243;42.708;23.310;2022-10-16T05:04:00;13.40;;;8.70;;
16450;SDS011;12243;42.708;23.310;2022-10-16T05:06:27;12.70;;;8.60;;
16450;SDS011;12243;42.708;23.310;2022-10-16T05:08:54;10.43;;;8.67;;
16450;SDS011;12243;42.708;23.310;2022-10-16T05:11:20;10.87;;;7.63;;
16450;SDS011;12243;42.708;23.310;2022-10-16T05:13:47;12.70;;;11.47;;
16450;SDS011;12243;42.708;23.310;2022-10-16T05:16:14;10.80;;;7.67;;
16450;SDS011;12243;42.708;23.310;2022-10-16T05:18:41;15.43;;;8.27;;
16450;SDS011;12243;42.708;23.310;2022-10-16T05:21:09;9.73;;;7.07;;
16450;SDS011;12243;42.708;23.310;2022-10-16T05:23:36;11.10;;;7.97;;
16450;SDS011;12243;42.708;23.310;2022-10-16T05:26:03;9.60;;;7.17;;
16450;SDS011;12243;42.708;23.310;2022-10-16T05:28:30;8.63;;;7.47;;
16450;SDS011;12243;42.708;23.310;2022-10-16T05:30:57;11.03;;;6.90;;
16450;SDS011;12243;42.708;23.310;2022-10-16T05:33:24;10.50;;;7.47;;
16450;SDS011;12243;42.708;23.310;2022-10-16T05:35:52;10.30;;;7.37;;
16450;SDS011;12243;42.708;23.310;2022-10-16T05:38:20;12.03;;;7.73;;
16450;SDS011;12243;42.708;23.310;2022-10-16T05:40:50;8.20;;;7.40;;
16450;SDS011;12243;42.708;23.310;2022-10-16T05:43:18;11.80;;;8.03;;
16450;SDS011;12243;42.708;23.310;2022-10-16T05:45:52;8.40;;;7.53;;
16450;SDS011;12243;42.708;23.310;2022-10-16T05:48:20;11.70;;;7.40;;
16450;SDS011;12243;42.708;23.310;2022-10-16T05:50:47;12.13;;;7.67;;
16450;SDS011;12243;42.708;23.310;2022-10-16T05:53:14;9.20;;;7.53;;
16450;SDS011;12243;42.708;23.310;2022-10-16T05:55:42;10.90;;;7.67;;
16450;SDS011;12243;42.708;23.310;2022-10-16T05:58:09;10.83;;;7.90;;
16450;SDS011;12243;42.708;23.310;2022-10-16T06:00:36;8.10;;;7.37;;
16450;SDS011;12243;42.708;23.310;2022-10-16T06:03:03;10.83;;;7.83;;
16450;SDS011;12243;42.708;23.310;2022-10-16T06:05:32;9.27;;;8.00;;
16450;SDS011;12243;42.708;23.310;2022-10-16T06:07:58;13.53;;;8.10;;
16450;SDS011;12243;42.708;23.310;2022-10-16T06:10:25;11.20;;;8.30;;
16450;SDS011;12243;42.708;23.310;2022-10-16T06:12:55;13.17;;;9.03;;
16450;SDS011;12243;42.708;23.310;2022-10-16T06:15:22;10.17;;;8.27;;
16450;SDS011;12243;42.708;23.310;2022-10-16T06:17:49;12.07;;;8.73;;
16450;SDS011;12243;42.708;23.310;2022-10-16T06:20:15;9.77;;;8.57;;
16450;SDS011;12243;42.708;23.310;2022-10-16T06:22:42;9.90;;;8.90;;
16450;SDS011;12243;42.708;23.310;2022-10-16T06:25:09;11.50;;;8.63;;
16450;SDS011;12243;42.708;23.310;2022-10-16T06:27:36;14.93;;;8.70;;
16450;SDS011;12243;42.708;23.310;2022-10-16T06:30:07;11.50;;;7.90;;
16450;SDS011;12243;42.708;23.310;2022-10-16T06:32:35;9.33;;;8.40;;
16450;SDS011;12243;42.708;23.310;2022-10-16T06:35:02;9.47;;;8.30;;
16450;SDS011;12243;42.708;23.310;2022-10-16T06:37:29;9.37;;;8.27;;
16450;SDS011;12243;42.708;23.310;2022-10-16T06:39:56;10.93;;;8.63;;
16450;SDS011;12243;42.708;23.310;2022-10-16T06:42:22;9.53;;;8.50;;
16450;SDS011;12243;42.708;23.310;2022-10-16T06:44:50;11.27;;;8.40;;
16450;SDS011;12243;42.708;23.310;2022-10-16T06:47:18;13.27;;;9.40;;
16450;SDS011;12243;42.708;23.310;2022-10-16T06:49:45;12.00;;;8.67;;
16450;SDS011;12243;42.708;23.310;2022-10-16T06:52:11;14.93;;;9.07;;
16450;SDS011;12243;42.708;23.310;2022-10-16T06:54:38;9.50;;;8.47;;
16450;SDS011;12243;42.708;23.310;2022-10-16T06:57:05;11.70;;;8.43;;
16450;SDS011;12243;42.708;23.310;2022-10-16T06:59:33;10.37;;;8.47;;
16450;SDS011;12243;42.708;23.310;2022-10-16T07:01:59;12.40;;;8.40;;
16450;SDS011;12243;42.708;23.310;2022-10-16T07:04:28;11.60;;;8.23;;
16450;SDS011;12243;42.708;23.310;2022-10-16T07:06:54;17.10;;;7.73;;
16450;SDS011;12243;42.708;23.310;2022-10-16T07:09:21;10.73;;;7.83;;
16450;SDS011;12243;42.708;23.310;2022-10-16T07:11:48;10.77;;;8.10;;
16450;SDS011;12243;42.708;23.310;2022-10-16T07:14:16;9.43;;;8.43;;
16450;SDS011;12243;42.708;23.310;2022-10-16T07:16:44;11.17;;;8.47;;
16450;SDS011;12243;42.708;23.310;2022-10-16T07:19:11;10.60;;;7.57;;
16450;SDS011;12243;42.708;23.310;2022-10-16T07:21:41;12.23;;;7.47;;
16450;SDS011;12243;42.708;23.310;2022-10-16T07:24:10;10.43;;;7.60;;
16450;SDS011;12243;42.708;23.310;2022-10-16T07:26:38;10.70;;;8.47;;
16450;SDS011;12243;42.708;23.310;2022-10-16T07:29:06;16.27;;;9.07;;
16450;SDS011;12243;42.708;23.310;2022-10-16T07:31:34;9.90;;;8.90;;
16450;SDS011;12243;42.708;23.310;2022-10-16T07:34:03;11.27;;;9.30;;
16450;SDS011;12243;42.708;23.310;2022-10-16T07:36:29;11.80;;;10.17;;
16450;SDS011;12243;42.708;23.310;2022-10-16T07:38:58;12.70;;;9.43;;
16450;SDS011;12243;42.708;23.310;2022-10-16T07:41:24;10.97;;;9.33;;
16450;SDS011;12243;42.708;23.310;2022-10-16T07:43:52;10.60;;;9.50;;
16450;SDS011;12243;42.708;23.310;2022-10-16T07:46:20;13.93;;;11.63;;
16450;SDS011;12243;42.708;23.310;2022-10-16T07:48:48;14.20;;;12.07;;
16450;SDS011;12243;42.708;23.310;2022-10-16T07:51:16;15.97;;;13.97;;
16450;SDS011;12243;42.708;23.310;2022-10-16T07:53:44;18.93;;;15.53;;
16450;SDS011;12243;42.708;23.310;2022-10-16T07:56:12;18.90;;;12.10;;
16450;SDS011;12243;42.708;23.310;2022-10-16T07:58:39;18.40;;;11.57;;
16450;SDS011;12243;42.708;23.310;2022-10-16T08:01:07;11.47;;;9.73;;
16450;SDS011;12243;42.708;23.310;2022-10-16T08:03:35;11.97;;;9.57;;
16450;SDS011;12243;42.708;23.310;2022-10-16T08:06:02;18.03;;;9.83;;
16450;SDS011;12243;42.708;23.310;2022-10-16T08:08:30;11.87;;;9.57;;
16450;SDS011;12243;42.708;23.310;2022-10-16T08:10:57;13.67;;;11.40;;
16450;SDS011;12243;42.708;23.310;2022-10-16T08:13:25;11.10;;;9.97;;
16450;SDS011;12243;42.708;23.310;2022-10-16T08:15:53;11.30;;;10.10;;
16450;SDS011;12243;42.708;23.310;2022-10-16T08:18:20;11.27;;;8.90;;
16450;SDS011;12243;42.708;23.310;2022-10-16T08:20:47;12.07;;;8.27;;
16450;SDS011;12243;42.708;23.310;2022-10-16T08:23:14;11.90;;;8.07;;
16450;SDS011;12243;42.708;23.310;2022-10-16T08:25:41;9.07;;;8.27;;
16450;SDS011;12243;42.708;23.310;2022-10-16T08:28:09;11.93;;;9.07;;
16450;SDS011;12243;42.708;23.310;2022-10-16T08:30:38;11.33;;;7.50;;
16450;SDS011;12243;42.708;23.310;2022-10-16T08:33:05;9.90;;;6.90;;
16450;SDS011;12243;42.708;23.310;2022-10-16T08:35:33;7.40;;;6.70;;
16450;SDS011;12243;42.708;23.310;2022-10-16T08:37:59;9.87;;;6.70;;
16450;SDS011;12243;42.708;23.310;2022-10-16T08:40:29;8.53;;;7.30;;
16450;SDS011;12243;42.708;23.310;2022-10-16T08:46:14;6.53;;;5.93;;
16450;SDS011;12243;42.708;23.310;2022-10-16T08:48:51;7.30;;;6.37;;
16450;SDS011;12243;42.708;23.310;2022-10-16T08:51:22;6.60;;;5.47;;
16450;SDS011;12243;42.708;23.310;2022-10-16T08:53:52;6.03;;;5.20;;
16450;SDS011;12243;42.708;23.310;2022-10-16T08:56:21;9.47;;;5.67;;
16450;SDS011;12243;42.708;23.310;2022-10-16T08:58:48;10.37;;;5.80;;
16450;SDS011;12243;42.708;23.310;2022-10-16T09:01:18;7.40;;;6.50;;
16450;SDS011;12243;42.708;23.310;2022-10-16T09:03:52;5.87;;;5.30;;
16450;SDS011;12243;42.708;23.310;2022-10-16T09:06:30;6.17;;;5.53;;
16450;SDS011;12243;42.708;23.310;2022-10-16T09:09:09;8.47;;;6.50;;
16450;SDS011;12243;42.708;23.310;2022-10-16T09:11:58;6.90;;;5.67;;
16450;SDS011;12243;42.708;23.310;2022-10-16T09:14:37;5.50;;;5.00;;
16450;SDS011;12243;42.708;23.310;2022-10-16T09:17:21;17.57;;;11.47;;
16450;SDS011;12243;42.708;23.310;2022-10-16T09:19:53;7.30;;;5.07;;
16450;SDS011;12243;42.708;23.310;2022-10-16T09:22:26;6.18;;;5.57;;
16450;SDS011;12243;42.708;23.310;2022-10-16T09:24:54;7.50;;;4.70;;
16450;SDS011;12243;42.708;23.310;2022-10-16T09:27:25;5.20;;;4.68;;
16450;SDS011;12243;42.708;23.310;2022-10-16T09:29:53;6.30;;;4.00;;
16450;SDS011;12243;42.708;23.310;2022-10-16T09:32:21;5.68;;;3.97;;
16450;SDS011;12243;42.708;23.310;2022-10-16T09:34:49;4.57;;;4.18;;
16450;SDS011;12243;42.708;23.310;2022-10-16T09:37:18;4.28;;;3.60;;
16450;SDS011;12243;42.708;23.310;2022-10-16T09:39:49;4.80;;;4.30;;
16450;SDS011;12243;42.708;23.310;2022-10-16T09:42:17;4.43;;;4.05;;
16450;SDS011;12243;42.708;23.310;2022-10-16T09:44:49;6.97;;;4.28;;
16450;SDS011;12243;42.708;23.310;2022-10-16T09:47:19;4.85;;;4.38;;
16450;SDS011;12243;42.708;23.310;2022-10-16T09:49:50;4.43;;;4.13;;
16450;SDS011;12243;42.708;23.310;2022-10-16T09:52:18;6.15;;;4.43;;
16450;SDS011;12243;42.708;23.310;2022-10-16T09:54:49;4.03;;;3.70;;
16450;SDS011;12243;42.708;23.310;2022-10-16T09:57:17;3.80;;;3.50;;
16450;SDS011;12243;42.708;23.310;2022-10-16T09:59:45;6.80;;;3.70;;
16450;SDS011;12243;42.708;23.310;2022-10-16T10:02:14;3.85;;;3.63;;
16450;SDS011;12243;42.708;23.310;2022-10-16T10:04:46;6.03;;;4.78;;
16450;SDS011;12243;42.708;23.310;2022-10-16T10:07:17;7.05;;;4.18;;
16450;SDS011;12243;42.708;23.310;2022-10-16T10:09:45;4.53;;;4.03;;
16450;SDS011;12243;42.708;23.310;2022-10-16T10:12:19;4.60;;;3.80;;
16450;SDS011;12243;42.708;23.310;2022-10-16T10:14:48;6.15;;;4.30;;
16450;SDS011;12243;42.708;23.310;2022-10-16T10:17:18;4.15;;;3.85;;
16450;SDS011;12243;42.708;23.310;2022-10-16T10:19:48;4.20;;;3.85;;
16450;SDS011;12243;42.708;23.310;2022-10-16T10:22:27;4.35;;;4.05;;
16450;SDS011;12243;42.708;23.310;2022-10-16T10:31:00;6.63;;;4.70;;
16450;SDS011;12243;42.708;23.310;2022-10-16T10:33:36;8.90;;;4.90;;
16450;SDS011;12243;42.708;23.310;2022-10-16T10:36:12;7.25;;;5.25;;
16450;SDS011;12243;42.708;23.310;2022-10-16T10:38:50;5.80;;;3.92;;
16450;SDS011;12243;42.708;23.310;2022-10-16T10:44:14;6.75;;;3.85;;
16450;SDS011;12243;42.708;23.310;2022-10-16T10:46:48;4.00;;;3.63;;
16450;SDS011;12243;42.708;23.310;2022-10-16T10:52:28;7.13;;;4.90;;
16450;SDS011;12243;42.708;23.310;2022-10-16T10:55:15;6.30;;;4.72;;
16450;SDS011;12243;42.708;23.310;2022-10-16T10:58:01;5.82;;;4.72;;
16450;SDS011;12243;42.708;23.310;2022-10-16T11:00:50;4.28;;;3.97;;
16450;SDS011;12243;42.708;23.310;2022-10-16T11:03:27;4.35;;;4.00;;
16450;SDS011;12243;42.708;23.310;2022-10-16T11:06:08;5.20;;;4.10;;
16450;SDS011;12243;42.708;23.310;2022-10-16T11:08:41;4.93;;;4.03;;
16450;SDS011;12243;42.708;23.310;2022-10-16T11:11:14;4.43;;;4.07;;
16450;SDS011;12243;42.708;23.310;2022-10-16T11:13:47;4.63;;;4.32;;
16450;SDS011;12243;42.708;23.310;2022-10-16T11:16:22;4.40;;;4.03;;
16450;SDS011;12243;42.708;23.310;2022-10-16T11:18:55;4.68;;;4.25;;
16450;SDS011;12243;42.708;23.310;2022-10-16T11:21:25;6.13;;;4.10;;
16450;SDS011;12243;42.708;23.310;2022-10-16T11:23:59;5.32;;;4.13;;
16450;SDS011;12243;42.708;23.310;2022-10-16T11:26:31;5.20;;;4.70;;
16450;SDS011;12243;42.708;23.310;2022-10-16T11:29:01;7.20;;;4.13;;
16450;SDS011;12243;42.708;23.310;2022-10-16T11:31:32;5.50;;;4.22;;
16450;SDS011;12243;42.708;23.310;2022-10-16T11:34:05;5.85;;;4.40;;
16450;SDS011;12243;42.708;23.310;2022-10-16T11:36:42;7.13;;;4.30;;
16450;SDS011;12243;42.708;23.310;2022-10-16T11:39:18;4.50;;;4.07;;
16450;SDS011;12243;42.708;23.310;2022-10-16T11:41:47;8.80;;;4.72;;
16450;SDS011;12243;42.708;23.310;2022-10-16T11:44:20;5.88;;;3.90;;
16450;SDS011;12243;42.708;23.310;2022-10-16T11:47:01;4.15;;;3.63;;
16450;SDS011;12243;42.708;23.310;2022-10-16T11:49:39;4.43;;;4.00;;
16450;SDS011;12243;42.708;23.310;2022-10-16T11:52:07;4.78;;;4.38;;
16450;SDS011;12243;42.708;23.310;2022-10-16T11:54:44;6.05;;;4.13;;
16450;SDS011;12243;42.708;23.310;2022-10-16T11:57:16;4.57;;;3.63;;
16450;SDS011;12243;42.708;23.310;2022-10-16T11:59:47;3.80;;;3.47;;
16450;SDS011;12243;42.708;23.310;2022-10-16T12:02:37;3.75;;;3.55;;
16450;SDS011;12243;42.708;23.310;2022-10-16T12:05:15;3.45;;;3.15;;
16450;SDS011;12243;42.708;23.310;2022-10-16T12:07:52;5.10;;;3.40;;
16450;SDS011;12243;42.708;23.310;2022-10-16T12:10:31;3.63;;;3.00;;
16450;SDS011;12243;42.708;23.310;2022-10-16T12:13:02;3.80;;;3.50;;
16450;SDS011;12243;42.708;23.310;2022-10-16T12:15:30;8.02;;;4.65;;
16450;SDS011;12243;42.708;23.310;2022-10-16T12:17:59;6.63;;;4.85;;
16450;SDS011;12243;42.708;23.310;2022-10-16T12:20:27;3.63;;;3.30;;
16450;SDS011;12243;42.708;23.310;2022-10-16T12:22:58;6.43;;;3.92;;
16450;SDS011;12243;42.708;23.310;2022-10-16T12:25:27;3.58;;;3.28;;
16450;SDS011;12243;42.708;23.310;2022-10-16T12:28:05;5.72;;;3.88;;
16450;SDS011;12243;42.708;23.310;2022-10-16T12:30:43;3.88;;;3.55;;
16450;SDS011;12243;42.708;23.310;2022-10-16T12:33:20;3.45;;;3.20;;
16450;SDS011;12243;42.708;23.310;2022-10-16T12:35:49;5.10;;;4.75;;
16450;SDS011;12243;42.708;23.310;2022-10-16T12:38:17;3.25;;;2.95;;
16450;SDS011;12243;42.708;23.310;2022-10-16T12:40:46;2.83;;;2.72;;
16450;SDS011;12243;42.708;23.310;2022-10-16T12:43:35;4.18;;;3.10;;
16450;SDS011;12243;42.708;23.310;2022-10-16T12:46:05;3.22;;;2.92;;
16450;SDS011;12243;42.708;23.310;2022-10-16T12:48:47;5.82;;;3.15;;
16450;SDS011;12243;42.708;23.310;2022-10-16T12:51:22;3.10;;;2.90;;
16450;SDS011;12243;42.708;23.310;2022-10-16T12:53:58;4.75;;;3.10;;
16450;SDS011;12243;42.708;23.310;2022-10-16T12:56:27;2.90;;;2.70;;
16450;SDS011;12243;42.708;23.310;2022-10-16T12:59:08;6.25;;;3.10;;
16450;SDS011;12243;42.708;23.310;2022-10-16T13:01:48;4.78;;;2.80;;
16450;SDS011;12243;42.708;23.310;2022-10-16T13:04:28;3.42;;;3.22;;
16450;SDS011;12243;42.708;23.310;2022-10-16T13:07:18;5.50;;;2.97;;
16450;SDS011;12243;42.708;23.310;2022-10-16T13:10:09;3.30;;;3.10;;
16450;SDS011;12243;42.708;23.310;2022-10-16T13:15:51;3.38;;;2.83;;
16450;SDS011;12243;42.708;23.310;2022-10-16T13:18:28;3.30;;;2.97;;
16450;SDS011;12243;42.708;23.310;2022-10-16T13:21:06;7.07;;;3.72;;
16450;SDS011;12243;42.708;23.310;2022-10-16T13:23:44;3.22;;;2.97;;
16450;SDS011;12243;42.708;23.310;2022-10-16T13:26:22;2.97;;;2.78;;
16450;SDS011;12243;42.708;23.310;2022-10-16T13:28:58;3.80;;;3.50;;
16450;SDS011;12243;42.708;23.310;2022-10-16T13:31:28;3.25;;;2.70;;
16450;SDS011;12243;42.708;23.310;2022-10-16T13:33:56;3.53;;;3.08;;
16450;SDS011;12243;42.708;23.310;2022-10-16T13:36:26;3.90;;;3.60;;
16450;SDS011;12243;42.708;23.310;2022-10-16T13:39:01;3.17;;;3.00;;
16450;SDS011;12243;42.708;23.310;2022-10-16T13:41:37;7.25;;;2.92;;
16450;SDS011;12243;42.708;23.310;2022-10-16T13:44:04;2.60;;;2.40;;
16450;SDS011;12243;42.708;23.310;2022-10-16T13:46:39;3.55;;;2.40;;
16450;SDS011;12243;42.708;23.310;2022-10-16T13:49:11;2.92;;;2.70;;
16450;SDS011;12243;42.708;23.310;2022-10-16T13:51:40;3.63;;;3.00;;
16450;SDS011;12243;42.708;23.310;2022-10-16T13:54:08;2.75;;;2.58;;
16450;SDS011;12243;42.708;23.310;2022-10-16T13:56:38;3.15;;;2.90;;
16450;SDS011;12243;42.708;23.310;2022-10-16T13:59:06;2.42;;;2.30;;
16450;SDS011;12243;42.708;23.310;2022-10-16T14:01:50;2.42;;;2.22;;
16450;SDS011;12243;42.708;23.310;2022-10-16T14:04:20;3.42;;;2.30;;
16450;SDS011;12243;42.708;23.310;2022-10-16T14:06:48;2.80;;;2.60;;
16450;SDS011;12243;42.708;23.310;2022-10-16T14:09:19;2.78;;;2.55;;
16450;SDS011;12243;42.708;23.310;2022-10-16T14:11:49;2.70;;;2.35;;
16450;SDS011;12243;42.708;23.310;2022-10-16T14:14:17;3.03;;;2.50;;
16450;SDS011;12243;42.708;23.310;2022-10-16T14:16:46;3.55;;;2.70;;
16450;SDS011;12243;42.708;23.310;2022-10-16T14:19:15;3.00;;;2.78;;
16450;SDS011;12243;42.708;23.310;2022-10-16T14:21:47;3.33;;;3.10;;
16450;SDS011;12243;42.708;23.310;2022-10-16T14:24:21;3.22;;;2.92;;
16450;SDS011;12243;42.708;23.310;2022-10-16T14:26:52;4.18;;;3.75;;
16450;SDS011;12243;42.708;23.310;2022-10-16T14:29:21;3.05;;;2.80;;
16450;SDS011;12243;42.708;23.310;2022-10-16T14:31:56;2.67;;;2.47;;
16450;SDS011;12243;42.708;23.310;2022-10-16T14:34:27;3.67;;;2.55;;
16450;SDS011;12243;42.708;23.310;2022-10-16T14:36:58;4.18;;;3.03;;
16450;SDS011;12243;42.708;23.310;2022-10-16T14:39:29;4.65;;;3.10;;
16450;SDS011;12243;42.708;23.310;2022-10-16T14:41:56;11.50;;;6.87;;
16450;SDS011;12243;42.708;23.310;2022-10-16T14:44:27;8.23;;;5.07;;
16450;SDS011;12243;42.708;23.310;2022-10-16T14:46:56;5.30;;;2.90;;
16450;SDS011;12243;42.708;23.310;2022-10-16T14:49:24;4.13;;;2.97;;
16450;SDS011;12243;42.708;23.310;2022-10-16T14:51:53;4.05;;;2.90;;
16450;SDS011;12243;42.708;23.310;2022-10-16T14:54:20;3.47;;;3.17;;
16450;SDS011;12243;42.708;23.310;2022-10-16T14:56:48;3.13;;;2.92;;
16450;SDS011;12243;42.708;23.310;2022-10-16T14:59:17;3.10;;;2.90;;
16450;SDS011;12243;42.708;23.310;2022-10-16T15:01:48;3.10;;;2.90;;
16450;SDS011;12243;42.708;23.310;2022-10-16T15:04:15;3.65;;;3.45;;